Time;durP1;ratioP1;P1;durP2;ratioP2;P2;SDS_P1;SDS_P2;PMS_P1;PMS_P2;Temp;Humidity;BMP_temperature;BMP_pressure;BME280_temperature;BME280_humidity;BME280_pressure;Samples;Min_cycle;Max_cycle;Signal;HPM_P1;HPM_P2
2022/12/11 00:00:47;;;;;;;;;;;27.90;85.40;;;;;;5076220;28;19925;-73
2022/12/11 00:03:15;;;;;;;;;;;27.90;86.20;;;;;;5089481;28;19924;-74
2022/12/11 00:05:43;;;;;;;;;;;27.80;84.70;;;;;;5082970;28;20015;-74
2022/12/11 00:08:10;;;;;;;;;;;28.10;84.60;;;;;;5092773;28;20677;-74
2022/12/11 00:10:37;;;;;;;;;;;28.40;85.50;;;;;;5081654;28;19963;-76
2022/12/11 00:13:04;;;;;;;;;;;28.80;85.20;;;;;;5075200;28;19913;-75
2022/12/11 00:15:30;;;;;;;;;;;28.90;84.30;;;;;;5076212;28;19916;-75
2022/12/11 00:17:57;;;;;;;;;;;28.90;83.00;;;;;;5074019;28;20026;-75
2022/12/11 00:20:24;;;;;;;;;;;28.80;83.50;;;;;;5084335;28;19912;-74
2022/12/11 00:22:50;;;;;;;;;;;29.00;83.30;;;;;;5082933;28;20347;-76
2022/12/11 00:25:18;;;;;;;;;;;29.00;82.80;;;;;;5085304;28;19913;-76
2022/12/11 00:27:46;;;;;;;;;;;29.00;81.60;;;;;;5077275;28;19995;-76
2022/12/11 00:30:13;;;;;;;;;;;29.10;82.00;;;;;;5086614;28;19912;-75
2022/12/11 00:32:40;;;;;;;;;;;29.30;82.90;;;;;;5093338;28;19961;-75
2022/12/11 00:35:06;;;;;;;;;;;29.60;83.00;;;;;;5088619;28;19924;-74
2022/12/11 00:37:33;;;;;;;;;;;29.80;81.60;;;;;;5083271;28;19912;-75
2022/12/11 00:40:00;;;;;;;;;;;29.70;81.60;;;;;;5091307;28;20026;-72
2022/12/11 00:42:26;;;;;;;;;;;29.80;81.40;;;;;;5078539;28;19925;-74
2022/12/11 00:44:55;;;;;;;;;;;30.10;81.80;;;;;;5088575;28;19916;-75
2022/12/11 00:47:21;;;;;;;;;;;30.10;80.60;;;;;;5085834;28;19988;-75
2022/12/11 00:49:48;;;;;;;;;;;29.90;81.10;;;;;;5080861;28;20010;-76
2022/12/11 00:52:16;;;;;;;;;;;30.00;80.90;;;;;;5083449;28;20301;-75
2022/12/11 00:54:43;;;;;;;;;;;30.20;80.80;;;;;;5084788;28;19966;-74
2022/12/11 00:57:10;;;;;;;;;;;30.30;80.40;;;;;;5085287;28;20354;-76
2022/12/11 00:59:36;;;;;;;;;;;30.40;80.40;;;;;;5074832;28;19973;-76
2022/12/11 01:02:03;;;;;;;;;;;30.50;80.80;;;;;;5080657;28;19993;-78
2022/12/11 01:04:30;;;;;;;;;;;30.60;80.40;;;;;;5071538;28;19913;-75
2022/12/11 01:06:56;;;;;;;;;;;30.90;79.70;;;;;;5076444;28;20011;-79
2022/12/11 01:12:07;;;;;;;;;;;31.10;78.60;;;;;;5074844;28;20042;-73
2022/12/11 01:14:34;;;;;;;;;;;31.30;79.80;;;;;;5069980;27;19972;-74
2022/12/11 01:17:01;;;;;;;;;;;31.60;78.30;;;;;;5075808;28;19920;-74
2022/12/11 01:19:28;;;;;;;;;;;31.50;78.10;;;;;;5081956;28;19958;-74
2022/12/11 01:21:54;;;;;;;;;;;31.60;77.90;;;;;;5079184;28;19935;-73
2022/12/11 01:24:21;;;;;;;;;;;31.70;77.00;;;;;;5077284;28;20373;-75
2022/12/11 01:26:48;;;;;;;;;;;31.70;77.30;;;;;;5081321;28;19956;-76
2022/12/11 01:29:14;;;;;;;;;;;31.70;78.10;;;;;;5080024;28;20603;-76
2022/12/11 01:31:41;;;;;;;;;;;31.70;77.40;;;;;;5075919;28;19918;-75
2022/12/11 01:34:08;;;;;;;;;;;31.80;77.70;;;;;;5084980;28;19912;-74
2022/12/11 01:36:34;;;;;;;;;;;32.00;77.10;;;;;;5072713;28;20418;-74
2022/12/11 01:39:01;;;;;;;;;;;31.90;76.40;;;;;;5078336;28;19912;-73
2022/12/11 01:41:28;;;;;;;;;;;32.00;76.60;;;;;;5085443;28;19921;-83
2022/12/11 01:43:57;;;;;;;;;;;31.90;76.00;;;;;;5077842;28;19916;-84
2022/12/11 01:46:24;;;;;;;;;;;32.00;77.50;;;;;;5086233;28;19924;-79
2022/12/11 01:48:51;;;;;;;;;;;32.30;76.10;;;;;;5077856;28;19913;-81
2022/12/11 01:51:18;;;;;;;;;;;32.50;76.00;;;;;;5088547;28;19960;-82
2022/12/11 01:54:06;;;;;;;;;;;32.80;77.20;;;;;;5082207;28;19913;-81
2022/12/11 01:56:33;;;;;;;;;;;32.90;75.80;;;;;;5091047;28;20002;-82
2022/12/11 01:59:06;;;;;;;;;;;33.00;76.10;;;;;;5094066;28;19908;-82
2022/12/11 02:01:35;;;;;;;;;;;33.20;75.30;;;;;;5088524;28;19981;-82
2022/12/11 02:04:02;;;;;;;;;;;33.30;74.80;;;;;;5084547;28;20017;-77
2022/12/11 02:06:45;;;;;;;;;;;33.00;74.90;;;;;;5077967;28;19935;-84
2022/12/11 02:09:23;;;;;;;;;;;32.60;75.50;;;;;;5078931;28;20410;-76
2022/12/11 02:11:55;;;;;;;;;;;32.00;76.20;;;;;;5078807;28;19931;-82
2022/12/11 02:14:29;;;;;;;;;;;31.80;77.60;;;;;;5076593;28;20291;-80
2022/12/11 02:17:04;;;;;;;;;;;32.10;76.60;;;;;;5078604;28;19912;-82
2022/12/11 02:19:44;;;;;;;;;;;32.40;75.60;;;;;;5087916;28;19912;-82
2022/12/11 02:22:13;;;;;;;;;;;32.60;75.10;;;;;;5082950;28;19927;-81
2022/12/11 02:25:18;;;;;;;;;;;32.90;74.10;;;;;;5086058;28;19923;-83
2022/12/11 02:28:01;;;;;;;;;;;33.10;75.60;;;;;;5068866;28;20367;-78
2022/12/11 02:30:28;;;;;;;;;;;33.50;74.80;;;;;;5054258;28;20395;-78
2022/12/11 02:32:57;;;;;;;;;;;34.00;74.20;;;;;;5071097;28;19977;-78
2022/12/11 02:35:23;;;;;;;;;;;34.10;74.10;;;;;;5080532;28;20395;-76
2022/12/11 02:37:55;;;;;;;;;;;34.30;73.90;;;;;;5081781;28;19955;-77
2022/12/11 02:40:24;;;;;;;;;;;34.00;73.60;;;;;;5075277;28;19916;-76
2022/12/11 02:42:51;;;;;;;;;;;34.30;74.50;;;;;;5086213;28;19920;-79
2022/12/11 02:45:18;;;;;;;;;;;34.40;72.50;;;;;;5079039;28;20687;-74
2022/12/11 02:47:47;;;;;;;;;;;34.50;73.10;;;;;;5073571;28;19999;-75
2022/12/11 02:50:16;;;;;;;;;;;34.50;73.90;;;;;;5074453;28;20015;-77
2022/12/11 02:52:43;;;;;;;;;;;34.50;71.80;;;;;;5077596;28;19963;-75
2022/12/11 02:55:11;;;;;;;;;;;34.20;72.50;;;;;;5069775;28;20389;-76
2022/12/11 02:57:48;;;;;;;;;;;34.10;73.70;;;;;;5085879;28;19919;-75
2022/12/11 03:00:15;;;;;;;;;;;34.30;73.00;;;;;;5079394;28;19976;-74
2022/12/11 03:02:42;;;;;;;;;;;34.40;73.10;;;;;;5074250;28;19920;-73
2022/12/11 03:05:10;;;;;;;;;;;34.50;72.40;;;;;;5078536;28;19912;-78
2022/12/11 03:07:38;;;;;;;;;;;34.60;72.10;;;;;;5092800;28;19953;-77
2022/12/11 03:10:06;;;;;;;;;;;34.80;72.70;;;;;;5086876;28;20054;-76
2022/12/11 03:12:35;;;;;;;;;;;35.00;71.70;;;;;;5082013;28;20286;-76
2022/12/11 03:15:05;;;;;;;;;;;34.90;71.50;;;;;;5081091;28;19916;-76
2022/12/11 03:17:31;;;;;;;;;;;34.70;71.90;;;;;;5072932;28;19908;-73
2022/12/11 03:20:16;;;;;;;;;;;34.80;72.60;;;;;;5085826;28;19913;-77
2022/12/11 03:23:05;;;;;;;;;;;35.10;71.20;;;;;;5079871;28;20392;-76
2022/12/11 03:25:35;;;;;;;;;;;35.10;71.30;;;;;;5081496;28;19912;-77
2022/12/11 03:28:14;;;;;;;;;;;35.50;72.40;;;;;;5091318;28;19908;-77
2022/12/11 03:30:41;;;;;;;;;;;35.60;71.30;;;;;;5087950;28;19967;-77
2022/12/11 03:33:10;;;;;;;;;;;35.50;70.70;;;;;;5080511;28;20355;-77
2022/12/11 03:35:52;;;;;;;;;;;35.00;70.60;;;;;;5078366;28;20054;-78
2022/12/11 03:38:32;;;;;;;;;;;34.70;70.80;;;;;;5071227;28;20267;-77
2022/12/11 03:41:01;;;;;;;;;;;34.70;70.40;;;;;;5077503;28;20282;-76
2022/12/11 03:43:28;;;;;;;;;;;34.70;71.90;;;;;;5082167;28;19988;-76
2022/12/11 03:45:56;;;;;;;;;;;34.90;71.20;;;;;;5071327;28;19916;-76
2022/12/11 03:48:24;;;;;;;;;;;35.20;71.60;;;;;;5090108;28;19920;-75
2022/12/11 03:50:51;;;;;;;;;;;35.40;71.20;;;;;;5078057;28;19913;-76
2022/12/11 03:53:19;;;;;;;;;;;35.60;70.30;;;;;;5084930;28;19997;-77
2022/12/11 03:55:47;;;;;;;;;;;35.50;70.50;;;;;;5086623;28;20403;-77
2022/12/11 03:58:14;;;;;;;;;;;35.50;69.20;;;;;;5086872;28;19912;-76
2022/12/11 04:00:40;;;;;;;;;;;35.30;69.00;;;;;;5079931;28;19932;-77
2022/12/11 04:03:13;;;;;;;;;;;35.20;69.90;;;;;;5072392;28;19963;-77
2022/12/11 04:05:41;;;;;;;;;;;35.10;70.40;;;;;;5079280;28;19913;-74
2022/12/11 04:08:11;;;;;;;;;;;35.20;70.40;;;;;;5088805;28;19920;-77
2022/12/11 04:10:38;;;;;;;;;;;35.30;70.10;;;;;;5086108;28;19912;-76
2022/12/11 04:13:05;;;;;;;;;;;35.20;70.20;;;;;;5080150;28;19927;-77
2022/12/11 04:15:32;;;;;;;;;;;35.10;70.30;;;;;;5083850;28;19916;-78
2022/12/11 04:26:17;;;;;;;;;;;35.60;69.10;;;;;;5083606;28;19987;-75
2022/12/11 04:28:45;;;;;;;;;;;35.70;69.40;;;;;;5070622;28;19916;-77
2022/12/11 04:31:12;;;;;;;;;;;35.80;68.60;;;;;;5072275;28;20012;-76
2022/12/11 04:33:39;;;;;;;;;;;35.60;68.70;;;;;;5072851;28;20372;-77
2022/12/11 04:36:06;;;;;;;;;;;35.60;68.80;;;;;;5078021;28;19993;-77
2022/12/11 04:38:33;;;;;;;;;;;35.70;69.10;;;;;;5077548;28;20036;-78
2022/12/11 04:41:00;;;;;;;;;;;35.70;69.70;;;;;;5088360;28;20345;-78
2022/12/11 04:43:27;;;;;;;;;;;35.60;68.30;;;;;;5076386;28;19929;-77
2022/12/11 04:46:00;;;;;;;;;;;35.60;69.10;;;;;;5084125;28;20385;-76
2022/12/11 04:48:27;;;;;;;;;;;35.50;67.80;;;;;;5083143;28;19949;-78
2022/12/11 04:50:54;;;;;;;;;;;35.50;68.30;;;;;;5080651;28;19920;-77
2022/12/11 04:53:21;;;;;;;;;;;35.40;68.60;;;;;;5076310;28;20272;-77
2022/12/11 04:55:47;;;;;;;;;;;35.40;68.40;;;;;;5085413;28;19919;-76
2022/12/11 04:58:14;;;;;;;;;;;35.50;69.50;;;;;;5088005;28;20426;-75
2022/12/11 05:00:41;;;;;;;;;;;35.50;68.20;;;;;;5074538;28;19917;-76
2022/12/11 05:03:07;;;;;;;;;;;35.70;68.10;;;;;;5073542;28;20035;-76
2022/12/11 05:05:34;;;;;;;;;;;35.50;67.70;;;;;;5079789;28;19912;-75
2022/12/11 05:08:01;;;;;;;;;;;34.80;68.10;;;;;;5084818;28;19913;-78
2022/12/11 05:10:28;;;;;;;;;;;34.20;68.60;;;;;;5083505;28;19912;-78
2022/12/11 05:12:54;;;;;;;;;;;34.10;68.60;;;;;;5092218;28;19934;-76
2022/12/11 05:15:21;;;;;;;;;;;33.90;68.70;;;;;;5084006;28;19912;-79
2022/12/11 05:17:48;;;;;;;;;;;33.80;69.20;;;;;;5092752;28;19948;-78
2022/12/11 05:20:15;;;;;;;;;;;34.00;69.20;;;;;;5085208;28;19913;-78
2022/12/11 05:22:42;;;;;;;;;;;34.10;68.90;;;;;;5074327;28;19950;-75
2022/12/11 05:25:09;;;;;;;;;;;34.10;69.00;;;;;;5079825;28;19958;-77
2022/12/11 05:27:36;;;;;;;;;;;34.10;68.90;;;;;;5085350;28;19912;-78
2022/12/11 05:30:03;;;;;;;;;;;34.30;68.70;;;;;;5078598;28;19962;-79
2022/12/11 05:32:30;;;;;;;;;;;34.70;69.00;;;;;;5085277;28;19918;-76
2022/12/11 05:34:56;;;;;;;;;;;35.10;68.90;;;;;;5085941;28;19973;-78
2022/12/11 05:37:23;;;;;;;;;;;35.10;68.00;;;;;;5074013;28;20374;-76
2022/12/11 05:39:50;;;;;;;;;;;35.00;68.10;;;;;;5081194;28;19955;-76
2022/12/11 05:42:17;;;;;;;;;;;35.00;68.60;;;;;;5095585;28;19920;-74
2022/12/11 05:44:43;;;;;;;;;;;35.10;68.50;;;;;;5091086;28;19916;-77
2022/12/11 05:47:10;;;;;;;;;;;35.00;67.90;;;;;;5082713;28;20311;-76
2022/12/11 05:49:37;;;;;;;;;;;35.00;68.60;;;;;;5075959;28;20042;-75
2022/12/11 05:52:03;;;;;;;;;;;35.00;74.20;;;;;;5076886;28;19919;-77
2022/12/11 05:54:30;;;;;;;;;;;34.90;74.60;;;;;;5091058;28;20374;-79
2022/12/11 05:56:57;;;;;;;;;;;34.50;74.50;;;;;;5076613;28;19913;-79
2022/12/11 05:59:23;;;;;;;;;;;34.10;75.40;;;;;;5091550;28;20002;-74
2022/12/11 06:01:50;;;;;;;;;;;33.60;76.20;;;;;;5073243;28;20359;-75
2022/12/11 06:04:17;;;;;;;;;;;33.30;77.00;;;;;;5073290;28;20356;-78
2022/12/11 06:06:43;;;;;;;;;;;33.00;77.30;;;;;;5090141;28;19912;-76
2022/12/11 06:09:14;;;;;;;;;;;32.70;77.60;;;;;;5092852;28;20324;-75
2022/12/11 06:11:41;;;;;;;;;;;32.60;78.30;;;;;;5072504;28;19993;-74
2022/12/11 06:14:09;;;;;;;;;;;32.40;78.50;;;;;;5077656;28;19912;-75
2022/12/11 06:16:36;;;;;;;;;;;32.40;78.90;;;;;;5074445;28;19927;-75
2022/12/11 06:19:03;;;;;;;;;;;32.50;78.20;;;;;;5093230;28;20403;-76
2022/12/11 06:21:30;;;;;;;;;;;32.50;78.40;;;;;;5089591;28;19939;-74
2022/12/11 06:23:58;;;;;;;;;;;32.30;78.40;;;;;;5092802;28;19908;-75
2022/12/11 06:26:25;;;;;;;;;;;32.20;79.00;;;;;;5073478;28;19917;-71
2022/12/11 06:28:52;;;;;;;;;;;32.30;79.10;;;;;;5075152;28;19918;-72
2022/12/11 06:31:19;;;;;;;;;;;32.30;78.60;;;;;;5090464;28;19916;-72
2022/12/11 06:33:45;;;;;;;;;;;32.40;78.30;;;;;;5079423;28;19917;-72
2022/12/11 06:36:16;;;;;;;;;;;32.30;78.30;;;;;;5072714;28;20297;-78
2022/12/11 06:38:43;;;;;;;;;;;32.30;78.60;;;;;;5084625;28;19974;-76
2022/12/11 06:41:10;;;;;;;;;;;32.30;78.30;;;;;;5086585;28;19948;-77
2022/12/11 06:43:38;;;;;;;;;;;32.30;78.00;;;;;;5090801;28;20405;-75
2022/12/11 06:46:06;;;;;;;;;;;32.20;78.20;;;;;;5077172;28;19986;-72
2022/12/11 06:48:34;;;;;;;;;;;32.20;78.30;;;;;;5077387;28;20332;-77
2022/12/11 06:51:11;;;;;;;;;;;32.00;78.60;;;;;;5084473;28;19920;-74
2022/12/11 06:53:38;;;;;;;;;;;31.90;78.80;;;;;;5088438;28;20406;-74
2022/12/11 06:56:06;;;;;;;;;;;31.60;79.10;;;;;;5077534;28;20007;-72
2022/12/11 06:58:34;;;;;;;;;;;31.40;79.50;;;;;;5092108;28;19920;-76
2022/12/11 07:01:00;;;;;;;;;;;31.40;79.80;;;;;;5089254;28;19912;-78
2022/12/11 07:03:51;;;;;;;;;;;31.50;79.70;;;;;;5089560;28;20298;-80
2022/12/11 07:06:18;;;;;;;;;;;31.60;79.80;;;;;;5071481;28;19920;-78
2022/12/11 07:08:45;;;;;;;;;;;31.60;80.00;;;;;;5082462;28;19908;-78
2022/12/11 07:11:13;;;;;;;;;;;31.50;80.20;;;;;;5074514;28;20367;-77
2022/12/11 07:13:43;;;;;;;;;;;31.50;80.00;;;;;;5075176;28;20263;-78
2022/12/11 07:16:11;;;;;;;;;;;31.40;80.00;;;;;;5084601;28;19919;-78
2022/12/11 07:18:38;;;;;;;;;;;31.40;80.60;;;;;;5076038;28;19912;-79
2022/12/11 07:21:06;;;;;;;;;;;31.40;80.90;;;;;;5086977;28;19928;-76
2022/12/11 07:23:33;;;;;;;;;;;31.30;81.30;;;;;;5086287;28;20014;-74
2022/12/11 07:26:03;;;;;;;;;;;31.20;81.10;;;;;;5083899;28;19912;-75
2022/12/11 07:28:30;;;;;;;;;;;31.10;81.40;;;;;;5090105;28;19912;-76
2022/12/11 07:30:57;;;;;;;;;;;30.90;82.20;;;;;;5078255;28;20274;-76
2022/12/11 07:33:23;;;;;;;;;;;30.70;83.00;;;;;;5087636;28;19935;-75
2022/12/11 07:35:50;;;;;;;;;;;30.70;83.40;;;;;;5074144;28;19970;-76
2022/12/11 07:38:17;;;;;;;;;;;30.60;83.20;;;;;;5072927;28;19908;-76
2022/12/11 07:40:43;;;;;;;;;;;30.30;83.60;;;;;;5072688;28;19974;-76
2022/12/11 07:43:10;;;;;;;;;;;30.20;83.90;;;;;;5071703;28;19924;-75
2022/12/11 07:45:37;;;;;;;;;;;30.00;84.00;;;;;;5085275;28;19946;-76
2022/12/11 07:48:03;;;;;;;;;;;29.90;84.30;;;;;;5084298;28;20281;-76
2022/12/11 07:50:30;;;;;;;;;;;29.80;84.30;;;;;;5079827;28;19916;-74
2022/12/11 07:52:57;;;;;;;;;;;29.80;84.30;;;;;;5074122;28;20011;-75
2022/12/11 07:55:24;;;;;;;;;;;29.70;85.10;;;;;;5075225;28;19913;-77
2022/12/11 07:57:50;;;;;;;;;;;29.70;85.80;;;;;;5081284;28;20003;-74
2022/12/11 08:00:17;;;;;;;;;;;29.60;85.80;;;;;;5082565;28;19913;-76
2022/12/11 08:02:44;;;;;;;;;;;29.50;86.10;;;;;;5076186;28;19994;-77
2022/12/11 08:05:11;;;;;;;;;;;29.40;86.40;;;;;;5078559;28;19912;-76
2022/12/11 08:07:38;;;;;;;;;;;29.30;86.90;;;;;;5077774;28;19912;-76
2022/12/11 08:10:05;;;;;;;;;;;29.20;87.10;;;;;;5071788;28;19920;-75
2022/12/11 08:12:32;;;;;;;;;;;29.10;86.90;;;;;;5072558;28;20394;-72
2022/12/11 08:14:59;;;;;;;;;;;28.90;87.00;;;;;;5077962;28;19912;-76
2022/12/11 08:17:26;;;;;;;;;;;28.90;87.50;;;;;;5071414;28;20046;-77
2022/12/11 08:19:53;;;;;;;;;;;28.80;87.70;;;;;;5075331;28;19919;-79
2022/12/11 08:22:20;;;;;;;;;;;28.70;87.70;;;;;;5085272;28;20016;-76
2022/12/11 08:24:46;;;;;;;;;;;28.70;87.90;;;;;;5078977;28;20323;-75
2022/12/11 08:27:13;;;;;;;;;;;28.60;87.80;;;;;;5091239;28;19916;-76
2022/12/11 08:29:40;;;;;;;;;;;28.60;87.70;;;;;;5089144;28;20367;-71
2022/12/11 08:32:06;;;;;;;;;;;28.50;87.90;;;;;;5075242;28;19910;-71
2022/12/11 08:34:33;;;;;;;;;;;28.40;88.20;;;;;;5085486;28;20159;-72
2022/12/11 08:37:00;;;;;;;;;;;28.30;88.30;;;;;;5093140;28;19920;-77
2022/12/11 08:39:27;;;;;;;;;;;28.20;88.60;;;;;;5081684;28;19912;-73
2022/12/11 08:41:53;;;;;;;;;;;28.00;89.00;;;;;;5107122;27;19924;-72
2022/12/11 08:44:23;;;;;;;;;;;27.90;89.40;;;;;;5088494;28;19912;-75
2022/12/11 08:46:50;;;;;;;;;;;27.90;89.70;;;;;;5090696;28;20343;-72
2022/12/11 08:49:17;;;;;;;;;;;27.80;89.90;;;;;;5080055;28;19909;-77
2022/12/11 08:51:43;;;;;;;;;;;27.70;90.00;;;;;;5081385;28;20305;-72
2022/12/11 08:54:10;;;;;;;;;;;27.70;90.20;;;;;;5074766;28;19908;-73
2022/12/11 08:56:37;;;;;;;;;;;27.60;90.20;;;;;;5090520;28;19955;-73
2022/12/11 08:59:05;;;;;;;;;;;27.50;90.20;;;;;;5094586;28;19915;-75
2022/12/11 09:01:31;;;;;;;;;;;27.50;90.20;;;;;;5090900;28;19919;-75
2022/12/11 09:03:58;;;;;;;;;;;27.50;90.30;;;;;;5086462;28;19916;-74
2022/12/11 09:06:26;;;;;;;;;;;27.40;90.40;;;;;;5092324;28;19923;-76
2022/12/11 09:08:53;;;;;;;;;;;27.30;90.50;;;;;;5090735;28;20284;-75
2022/12/11 09:11:21;;;;;;;;;;;27.20;90.60;;;;;;5082167;28;19966;-76
2022/12/11 09:13:48;;;;;;;;;;;27.20;90.70;;;;;;5076515;28;19952;-73
2022/12/11 09:16:16;;;;;;;;;;;27.10;90.90;;;;;;5082607;28;19928;-75
2022/12/11 09:18:45;;;;;;;;;;;27.00;91.00;;;;;;5075047;28;20352;-77
2022/12/11 09:21:13;;;;;;;;;;;26.90;91.20;;;;;;5075493;28;19924;-74
2022/12/11 09:23:40;;;;;;;;;;;26.80;91.30;;;;;;5084148;28;20073;-77
2022/12/11 09:26:09;;;;;;;;;;;26.80;91.40;;;;;;5092644;28;20446;-76
2022/12/11 09:28:36;;;;;;;;;;;26.70;91.50;;;;;;5092163;28;19973;-74
2022/12/11 09:31:10;;;;;;;;;;;26.60;91.60;;;;;;5084190;28;19920;-74
2022/12/11 09:33:36;;;;;;;;;;;26.50;91.90;;;;;;5074171;28;19924;-77
2022/12/11 09:36:04;;;;;;;;;;;26.50;91.90;;;;;;5078498;28;19927;-74
2022/12/11 09:38:31;;;;;;;;;;;26.40;92.00;;;;;;5092225;28;19912;-73
2022/12/11 09:40:57;;;;;;;;;;;26.30;92.10;;;;;;5091992;28;19958;-76
2022/12/11 09:43:24;;;;;;;;;;;26.30;92.10;;;;;;5073924;28;20375;-74
2022/12/11 09:45:51;;;;;;;;;;;26.30;92.20;;;;;;5084073;28;19919;-77
2022/12/11 09:48:20;;;;;;;;;;;26.20;92.30;;;;;;5083898;28;19912;-76
2022/12/11 09:50:47;;;;;;;;;;;26.20;92.40;;;;;;5073863;28;20244;-74
2022/12/11 09:53:20;;;;;;;;;;;26.10;92.40;;;;;;5090873;28;19947;-77
2022/12/11 09:56:03;;;;;;;;;;;26.00;92.40;;;;;;5090713;28;19918;-76
2022/12/11 09:58:30;;;;;;;;;;;26.00;92.60;;;;;;5094574;28;19908;-73
2022/12/11 10:01:16;;;;;;;;;;;25.90;92.80;;;;;;5088299;28;19912;-78
2022/12/11 10:03:43;;;;;;;;;;;25.90;92.90;;;;;;5085172;28;19935;-77
2022/12/11 10:06:22;;;;;;;;;;;25.80;92.90;;;;;;5079246;28;20021;-74
2022/12/11 10:09:00;;;;;;;;;;;25.80;92.90;;;;;;5086491;28;19993;-77
2022/12/11 10:11:29;;;;;;;;;;;25.70;92.90;;;;;;5091104;28;19912;-76
2022/12/11 10:13:56;;;;;;;;;;;25.70;92.90;;;;;;5087175;28;19955;-78
2022/12/11 10:16:32;;;;;;;;;;;25.70;93.00;;;;;;5083609;28;19916;-71
2022/12/11 10:18:59;;;;;;;;;;;25.70;93.00;;;;;;5077329;28;19923;-77
2022/12/11 10:21:26;;;;;;;;;;;25.60;93.10;;;;;;5083864;28;19916;-78
2022/12/11 10:24:00;;;;;;;;;;;25.60;93.20;;;;;;5092470;28;19908;-77
2022/12/11 10:26:28;;;;;;;;;;;25.60;93.30;;;;;;5089516;28;19919;-76
2022/12/11 10:28:58;;;;;;;;;;;25.50;93.50;;;;;;5091789;28;19912;-76
2022/12/11 10:31:35;;;;;;;;;;;25.50;93.60;;;;;;5076352;28;20383;-77
2022/12/11 10:34:01;;;;;;;;;;;25.40;93.80;;;;;;5089400;28;20343;-72
2022/12/11 10:36:29;;;;;;;;;;;25.40;94.10;;;;;;5078023;28;19998;-77
2022/12/11 10:38:57;;;;;;;;;;;25.30;94.20;;;;;;5074394;28;19916;-72
2022/12/11 10:41:30;;;;;;;;;;;25.20;94.50;;;;;;5087511;28;19919;-76
2022/12/11 10:43:58;;;;;;;;;;;25.20;94.70;;;;;;5077977;28;19912;-77
2022/12/11 10:46:26;;;;;;;;;;;25.10;94.70;;;;;;5082383;28;19919;-70
2022/12/11 10:48:55;;;;;;;;;;;25.00;94.90;;;;;;5078452;28;19913;-75
2022/12/11 10:51:32;;;;;;;;;;;24.90;94.90;;;;;;5071241;28;20601;-77
2022/12/11 10:54:16;;;;;;;;;;;24.90;95.00;;;;;;5073065;28;19965;-75
2022/12/11 10:56:45;;;;;;;;;;;24.80;95.00;;;;;;5091865;28;19912;-79
2022/12/11 10:59:20;;;;;;;;;;;24.70;95.10;;;;;;5090586;28;19931;-77
2022/12/11 11:01:47;;;;;;;;;;;24.70;95.20;;;;;;5075661;28;19924;-72
2022/12/11 11:04:18;;;;;;;;;;;24.70;95.30;;;;;;5083288;28;19912;-75
2022/12/11 11:06:45;;;;;;;;;;;24.70;95.40;;;;;;5076237;28;19931;-76
2022/12/11 11:09:27;;;;;;;;;;;24.70;95.50;;;;;;5083148;28;19992;-77
2022/12/11 11:11:54;;;;;;;;;;;24.70;95.50;;;;;;5077919;28;19940;-71
2022/12/11 11:14:21;;;;;;;;;;;24.60;95.60;;;;;;5077239;28;19923;-76
2022/12/11 11:16:49;;;;;;;;;;;24.60;95.70;;;;;;5090549;28;19999;-76
2022/12/11 11:19:36;;;;;;;;;;;24.60;95.80;;;;;;5088217;28;20415;-77
2022/12/11 11:22:08;;;;;;;;;;;24.50;95.90;;;;;;5076581;28;19923;-78
2022/12/11 11:24:34;;;;;;;;;;;24.40;96.10;;;;;;5085745;28;19920;-78
2022/12/11 11:27:02;;;;;;;;;;;24.40;96.20;;;;;;5083901;28;20058;-76
2022/12/11 11:29:31;;;;;;;;;;;24.20;96.20;;;;;;5076644;28;19917;-77
2022/12/11 11:32:15;;;;;;;;;;;24.20;96.40;;;;;;5080741;28;20410;-73
2022/12/11 11:34:42;;;;;;;;;;;24.10;96.60;;;;;;5077839;28;19927;-77
2022/12/11 11:37:22;;;;;;;;;;;24.00;96.90;;;;;;5088996;28;20028;-72
2022/12/11 11:39:50;;;;;;;;;;;24.00;96.90;;;;;;5086533;28;19969;-75
2022/12/11 11:42:33;;;;;;;;;;;23.90;97.10;;;;;;5071775;28;20418;-75
2022/12/11 11:45:08;;;;;;;;;;;23.90;97.30;;;;;;5110420;27;19951;-76
2022/12/11 11:47:41;;;;;;;;;;;23.80;97.60;;;;;;5076150;28;20220;-76
2022/12/11 11:50:13;;;;;;;;;;;23.80;97.60;;;;;;5089570;28;20371;-76
2022/12/11 11:52:44;;;;;;;;;;;23.80;97.60;;;;;;5085882;28;19946;-75
2022/12/11 11:55:13;;;;;;;;;;;23.70;97.80;;;;;;5072418;28;19919;-71
2022/12/11 11:58:00;;;;;;;;;;;23.70;98.00;;;;;;5079615;28;19912;-75
2022/12/11 12:00:28;;;;;;;;;;;23.60;98.00;;;;;;5070774;28;19920;-73
2022/12/11 12:03:02;;;;;;;;;;;23.60;98.30;;;;;;5084533;28;19931;-71
2022/12/11 12:05:43;;;;;;;;;;;23.50;98.50;;;;;;5073899;28;19916;-70
2022/12/11 12:08:21;;;;;;;;;;;23.50;98.70;;;;;;5078570;28;19923;-74
2022/12/11 12:10:54;;;;;;;;;;;23.50;99.00;;;;;;5077684;28;19912;-73
2022/12/11 12:13:41;;;;;;;;;;;23.50;99.30;;;;;;5072411;28;19928;-72
2022/12/11 12:16:14;;;;;;;;;;;23.50;99.40;;;;;;5061222;28;19969;-73
2022/12/11 12:18:47;;;;;;;;;;;23.50;99.70;;;;;;5069921;28;20020;-72
2022/12/11 12:21:22;;;;;;;;;;;23.50;99.90;;;;;;5072339;28;20047;-71
2022/12/11 12:23:57;;;;;;;;;;;23.50;99.90;;;;;;5072996;28;20055;-73
2022/12/11 12:26:23;;;;;;;;;;;23.40;99.90;;;;;;5086303;28;20380;-75
2022/12/11 12:29:08;;;;;;;;;;;23.40;99.90;;;;;;5086980;28;19912;-72
2022/12/11 12:31:35;;;;;;;;;;;23.40;99.90;;;;;;5081702;28;19970;-72
2022/12/11 12:34:10;;;;;;;;;;;23.30;99.90;;;;;;5077180;28;19916;-74
2022/12/11 12:36:40;;;;;;;;;;;23.30;99.90;;;;;;5070762;28;19970;-73
2022/12/11 12:39:16;;;;;;;;;;;23.30;99.90;;;;;;5079728;28;19928;-72
2022/12/11 12:41:46;;;;;;;;;;;23.20;99.90;;;;;;5073843;28;19920;-72
2022/12/11 12:44:17;;;;;;;;;;;23.20;99.90;;;;;;5070767;28;19970;-73
2022/12/11 12:47:02;;;;;;;;;;;23.10;99.90;;;;;;5088783;28;19920;-73
2022/12/11 12:49:35;;;;;;;;;;;23.10;99.90;;;;;;5085724;28;19919;-72
2022/12/11 12:52:03;;;;;;;;;;;23.10;99.90;;;;;;5081183;28;19919;-72
2022/12/11 12:54:31;;;;;;;;;;;23.00;99.90;;;;;;5073259;28;19920;-75
2022/12/11 12:56:58;;;;;;;;;;;23.00;99.90;;;;;;5088508;28;19916;-74
2022/12/11 12:59:26;;;;;;;;;;;23.00;99.90;;;;;;5089232;28;20212;-73
2022/12/11 13:02:00;;;;;;;;;;;23.00;99.90;;;;;;5089279;28;19931;-72
2022/12/11 13:04:41;;;;;;;;;;;23.00;99.90;;;;;;5089041;28;19908;-72
2022/12/11 13:07:19;;;;;;;;;;;23.10;99.90;;;;;;5090158;28;20010;-72
2022/12/11 13:10:00;;;;;;;;;;;23.10;99.90;;;;;;5086506;28;19921;-74
2022/12/11 13:12:45;;;;;;;;;;;23.10;99.90;;;;;;5102965;28;19919;-69
2022/12/11 13:15:31;;;;;;;;;;;23.10;99.90;;;;;;5078336;28;20328;-75
2022/12/11 13:17:58;;;;;;;;;;;23.10;99.90;;;;;;5090314;28;19966;-74
2022/12/11 13:20:26;;;;;;;;;;;23.10;99.90;;;;;;5080634;28;20436;-71
2022/12/11 13:22:55;;;;;;;;;;;23.10;99.90;;;;;;5093059;28;19958;-73
2022/12/11 13:25:30;;;;;;;;;;;23.10;99.90;;;;;;5089481;28;19917;-74
2022/12/11 13:28:20;;;;;;;;;;;23.10;99.90;;;;;;5088873;28;19912;-75
2022/12/11 13:31:06;;;;;;;;;;;23.10;99.90;;;;;;5089186;28;19912;-72
2022/12/11 13:33:39;;;;;;;;;;;23.10;99.90;;;;;;5090029;28;19913;-74
2022/12/11 13:36:17;;;;;;;;;;;23.10;99.90;;;;;;5089146;28;19930;-76
2022/12/11 13:38:49;;;;;;;;;;;23.10;99.90;;;;;;5094095;28;20013;-76
2022/12/11 13:41:18;;;;;;;;;;;23.10;99.90;;;;;;5085932;28;20381;-74
2022/12/11 13:43:46;;;;;;;;;;;23.10;99.90;;;;;;5079852;28;19924;-75
2022/12/11 13:46:16;;;;;;;;;;;23.10;99.90;;;;;;5090492;28;19912;-75
2022/12/11 13:48:47;;;;;;;;;;;23.10;99.90;;;;;;5086118;28;19916;-76
2022/12/11 13:51:19;;;;;;;;;;;23.00;99.90;;;;;;5091279;28;20370;-76
2022/12/11 13:53:46;;;;;;;;;;;23.00;99.90;;;;;;5088473;28;20405;-75
2022/12/11 13:56:16;;;;;;;;;;;23.00;99.90;;;;;;5079399;28;19959;-75
2022/12/11 13:58:43;;;;;;;;;;;23.00;99.90;;;;;;5080616;28;19916;-77
2022/12/11 14:01:36;;;;;;;;;;;22.90;99.90;;;;;;5086074;28;19912;-77
2022/12/11 14:04:14;;;;;;;;;;;22.80;99.90;;;;;;5072329;28;19928;-77
2022/12/11 14:06:41;;;;;;;;;;;22.80;99.90;;;;;;5073806;28;20057;-76
2022/12/11 14:09:08;;;;;;;;;;;22.70;99.90;;;;;;5082190;28;19922;-76
2022/12/11 14:11:36;;;;;;;;;;;22.70;99.90;;;;;;5088341;28;20445;-77
2022/12/11 14:14:04;;;;;;;;;;;22.60;99.90;;;;;;5093600;28;20294;-74
2022/12/11 14:16:31;;;;;;;;;;;22.60;99.90;;;;;;5074506;28;19956;-76
2022/12/11 14:19:03;;;;;;;;;;;22.60;99.90;;;;;;5073332;28;20691;-75
2022/12/11 14:21:30;;;;;;;;;;;22.60;99.90;;;;;;5086846;28;19916;-76
2022/12/11 14:24:02;;;;;;;;;;;22.60;99.90;;;;;;5072630;28;19927;-75
2022/12/11 14:26:31;;;;;;;;;;;22.50;99.90;;;;;;5072098;28;20355;-77
2022/12/11 14:28:58;;;;;;;;;;;22.60;99.90;;;;;;5073115;28;20003;-74
2022/12/11 14:31:27;;;;;;;;;;;22.60;99.90;;;;;;5088351;28;19923;-73
2022/12/11 14:33:57;;;;;;;;;;;22.60;99.90;;;;;;5092877;28;19916;-74
2022/12/11 14:36:24;;;;;;;;;;;22.60;99.90;;;;;;5089108;28;19930;-74
2022/12/11 14:39:05;;;;;;;;;;;22.60;99.90;;;;;;5074994;28;19923;-74
2022/12/11 14:41:38;;;;;;;;;;;22.60;99.90;;;;;;5094500;28;19909;-72